Time;durP1;ratioP1;P1;durP2;ratioP2;P2;SDS_P1;SDS_P2;PMS_P1;PMS_P2;Temp;Humidity;BMP_temperature;BMP_pressure;BME280_temperature;BME280_humidity;BME280_pressure;Samples;Min_cycle;Max_cycle;Signal;HPM_P1;HPM_P2
2021/04/08 00:02:13;;;;;;;20.63;9.80;;;;;;;2.78;61.85;99421.69;5043696;28;20068;-75
2021/04/08 00:04:40;;;;;;;25.00;11.25;;;;;;;2.80;62.03;99426.84;5041830;28;20191;-77
2021/04/08 00:07:07;;;;;;;19.40;11.07;;;;;;;2.81;61.76;99426.75;5043636;28;20053;-76
2021/04/08 00:09:33;;;;;;;18.92;9.95;;;;;;;2.89;61.40;99423.72;5042964;28;20080;-75
2021/04/08 00:11:59;;;;;;;16.83;9.57;;;;;;;2.92;61.48;99426.19;5043744;28;20053;-76
2021/04/08 00:14:26;;;;;;;23.63;13.40;;;;;;;2.88;61.44;99419.41;5044158;28;20106;-76
2021/04/08 00:16:54;;;;;;;30.75;11.95;;;;;;;2.94;61.42;99413.88;5043536;28;20056;-75
2021/04/08 00:19:21;;;;;;;22.92;10.63;;;;;;;3.06;61.11;99407.13;5043644;28;20056;-75
2021/04/08 00:21:47;;;;;;;19.95;10.77;;;;;;;3.14;60.71;99404.97;5043227;28;20045;-77
2021/04/08 00:24:14;;;;;;;17.55;9.23;;;;;;;3.27;60.41;99418.16;5043982;28;20094;-76
2021/04/08 00:26:40;;;;;;;19.77;9.25;;;;;;;3.36;60.40;99408.97;5043348;28;20068;-76
2021/04/08 00:29:07;;;;;;;18.05;8.70;;;;;;;3.41;60.50;99409.56;5043391;28;20424;-76
2021/04/08 00:31:33;;;;;;;16.17;8.52;;;;;;;3.43;60.40;99403.31;5044085;28;20049;-75
2021/04/08 00:34:00;;;;;;;15.38;9.02;;;;;;;3.45;60.47;99408.47;5042142;28;20060;-77
2021/04/08 00:36:27;;;;;;;15.57;7.90;;;;;;;3.52;60.37;99412.41;5044279;28;20079;-75
2021/04/08 00:38:53;;;;;;;13.82;8.43;;;;;;;3.56;60.04;99416.50;5043591;28;20041;-78
2021/04/08 00:41:20;;;;;;;20.60;10.00;;;;;;;3.59;60.12;99415.50;5043531;28;20056;-77
2021/04/08 00:43:46;;;;;;;13.63;7.70;;;;;;;3.64;60.18;99405.66;5043722;28;20048;-74
2021/04/08 00:46:12;;;;;;;16.60;9.20;;;;;;;3.67;60.14;99407.22;5043475;28;20053;-78
2021/04/08 00:48:39;;;;;;;14.55;7.53;;;;;;;3.68;59.93;99411.53;5044566;28;20060;-75
2021/04/08 00:51:06;;;;;;;19.48;10.32;;;;;;;3.70;60.29;99404.47;5043208;28;20044;-77
2021/04/08 00:53:34;;;;;;;17.60;8.50;;;;;;;3.75;60.12;99408.47;5042799;28;20136;-78
2021/04/08 00:56:01;;;;;;;16.48;8.63;;;;;;;3.77;59.92;99408.41;5043349;28;20057;-77
2021/04/08 00:58:30;;;;;;;16.52;8.65;;;;;;;3.79;59.80;99411.75;5043535;28;20048;-76
2021/04/08 01:00:57;;;;;;;19.13;9.93;;;;;;;3.69;60.26;99427.13;5043910;28;20099;-76
2021/04/08 01:03:24;;;;;;;17.05;9.95;;;;;;;3.72;59.77;99429.53;5043135;28;20234;-76
2021/04/08 01:05:50;;;;;;;18.60;9.43;;;;;;;3.79;59.68;99430.88;5044353;28;20048;-77
2021/04/08 01:08:18;;;;;;;19.10;9.27;;;;;;;3.77;59.62;99429.28;5043680;28;20045;-74
2021/04/08 01:10:45;;;;;;;16.75;8.65;;;;;;;3.80;59.71;99434.34;5043713;28;20053;-76
2021/04/08 01:13:15;;;;;;;18.27;10.35;;;;;;;3.78;59.52;99441.41;5042918;28;20064;-76
2021/04/08 01:15:43;;;;;;;17.42;9.38;;;;;;;3.69;59.88;99436.72;5042963;28;20106;-76
2021/04/08 01:18:21;;;;;;;21.77;10.50;;;;;;;3.72;59.96;99439.16;5043822;28;20045;-78
2021/04/08 01:21:05;;;;;;;18.98;10.18;;;;;;;3.80;59.57;99444.78;5042816;28;20068;-76
2021/04/08 01:24:10;;;;;;;20.15;11.27;;;;;;;3.82;59.47;99448.16;5043091;28;20084;-75
2021/04/08 01:27:14;;;;;;;18.58;10.55;;;;;;;3.82;59.31;99441.16;5042670;28;20060;-75
2021/04/08 01:30:17;;;;;;;17.55;9.27;;;;;;;3.75;59.44;99437.22;5042994;28;20044;-75
2021/04/08 01:32:51;;;;;;;18.67;9.27;;;;;;;3.71;59.47;99438.31;5044074;28;20473;-75
2021/04/08 01:35:22;;;;;;;18.77;8.93;;;;;;;3.72;59.58;99442.59;5043203;28;20516;-75
2021/04/08 01:37:54;;;;;;;19.95;10.43;;;;;;;3.69;59.58;99437.56;5043228;28;20455;-76
2021/04/08 01:40:22;;;;;;;18.73;7.95;;;;;;;3.62;59.70;99446.69;5043645;28;20123;-76
2021/04/08 01:42:52;;;;;;;18.65;9.45;;;;;;;3.62;59.65;99437.06;5043735;28;20136;-77
2021/04/08 01:45:21;;;;;;;18.33;9.00;;;;;;;3.62;59.61;99436.25;5043276;28;20550;-76
2021/04/08 01:47:51;;;;;;;18.15;10.20;;;;;;;3.61;59.54;99440.59;5043313;28;20156;-76
2021/04/08 01:50:19;;;;;;;27.48;10.85;;;;;;;3.58;59.60;99432.97;5042704;28;20628;-77
2021/04/08 01:52:49;;;;;;;23.38;8.57;;;;;;;3.64;59.37;99431.75;5043516;28;20049;-77
2021/04/08 01:55:17;;;;;;;17.77;9.00;;;;;;;3.65;59.62;99438.66;5043447;28;20056;-77
2021/04/08 01:57:46;;;;;;;15.32;8.27;;;;;;;3.66;59.38;99442.13;5042594;28;20148;-77
2021/04/08 02:00:15;;;;;;;19.00;9.43;;;;;;;3.69;59.25;99436.72;5044400;28;20067;-76
2021/04/08 02:02:46;;;;;;;18.77;10.13;;;;;;;3.73;59.32;99433.00;5043815;28;20049;-76
2021/04/08 02:05:15;;;;;;;24.90;12.52;;;;;;;3.77;59.25;99442.34;5044960;28;20049;-77
2021/04/08 02:07:43;;;;;;;18.75;9.30;;;;;;;3.76;59.06;99433.69;5047427;28;20567;-76
2021/04/08 02:10:13;;;;;;;23.48;11.35;;;;;;;3.79;59.12;99433.47;5045914;28;20683;-76
2021/04/08 02:12:43;;;;;;;17.85;8.85;;;;;;;3.76;59.19;99432.81;5045974;28;20650;-77
2021/04/08 02:15:12;;;;;;;18.15;10.07;;;;;;;3.80;59.16;99429.13;5047164;28;20047;-76
2021/04/08 02:17:39;;;;;;;15.02;8.85;;;;;;;3.80;59.15;99429.97;5045645;28;20424;-76
2021/04/08 02:20:10;;;;;;;15.65;9.63;;;;;;;3.79;59.03;99432.66;5046461;28;20103;-76
2021/04/08 02:22:40;;;;;;;16.77;8.85;;;;;;;3.81;59.30;99431.63;5046742;28;20052;-74
2021/04/08 02:25:09;;;;;;;19.48;9.30;;;;;;;3.80;59.21;99434.34;5046545;28;20049;-74
2021/04/08 02:27:37;;;;;;;17.25;10.70;;;;;;;3.76;58.90;99428.47;5046196;28;20460;-74
2021/04/08 02:30:06;;;;;;;16.92;8.82;;;;;;;3.73;59.25;99433.00;5045932;28;20069;-77
2021/04/08 02:32:33;;;;;;;17.90;11.43;;;;;;;3.66;59.29;99436.91;5045764;28;20115;-76
2021/04/08 02:34:59;;;;;;;22.58;11.50;;;;;;;3.63;59.44;99443.13;5043852;28;20049;-74
2021/04/08 02:37:27;;;;;;;15.95;8.45;;;;;;;3.61;59.28;99442.38;5046392;28;20056;-75
2021/04/08 02:39:54;;;;;;;17.85;9.70;;;;;;;3.61;59.33;99445.81;5046087;28;20067;-76
2021/04/08 02:42:21;;;;;;;22.63;10.30;;;;;;;3.61;59.50;99450.22;5046625;28;20052;-76
2021/04/08 02:44:47;;;;;;;18.30;8.80;;;;;;;3.62;59.06;99451.91;5046208;28;20048;-76
2021/04/08 02:47:13;;;;;;;19.25;11.95;;;;;;;3.66;59.00;99449.97;5045776;28;20044;-76
2021/04/08 02:49:40;;;;;;;16.38;9.70;;;;;;;3.69;59.20;99455.00;5046650;28;20373;-76
2021/04/08 02:52:11;;;;;;;24.42;10.95;;;;;;;3.73;59.20;99454.75;5045927;28;20060;-76
2021/04/08 02:54:42;;;;;;;18.67;9.30;;;;;;;3.79;58.95;99453.53;5046013;28;20049;-75
2021/04/08 02:57:15;;;;;;;17.10;9.65;;;;;;;3.82;58.92;99453.38;5046494;28;20052;-76
2021/04/08 02:59:48;;;;;;;17.42;9.82;;;;;;;3.80;59.10;99457.84;5045608;28;20045;-76
2021/04/08 03:02:18;;;;;;;18.17;10.32;;;;;;;3.79;58.91;99462.22;5045110;28;20052;-76
2021/04/08 03:04:48;;;;;;;14.95;9.77;;;;;;;3.81;58.90;99457.75;5045411;28;20103;-75
2021/04/08 03:07:20;;;;;;;21.40;12.65;;;;;;;3.80;58.65;99457.84;5045746;28;20049;-75
2021/04/08 03:09:47;;;;;;;20.65;11.63;;;;;;;3.82;58.83;99459.44;5045564;28;20045;-75
2021/04/08 03:12:16;;;;;;;20.10;10.63;;;;;;;3.85;58.78;99449.72;5045570;28;20044;-76
2021/04/08 03:14:48;;;;;;;21.35;9.95;;;;;;;3.85;58.63;99449.72;5044942;28;20459;-76
2021/04/08 03:17:17;;;;;;;17.55;10.32;;;;;;;3.80;58.58;99455.25;5045861;28;20045;-76
2021/04/08 03:19:45;;;;;;;22.05;11.45;;;;;;;3.76;58.89;99459.81;5045199;28;20041;-74
2021/04/08 03:22:14;;;;;;;19.20;9.15;;;;;;;3.76;58.89;99458.94;5044110;28;20110;-76
2021/04/08 03:24:42;;;;;;;17.80;12.35;;;;;;;3.72;58.77;99445.22;5045095;28;20056;-75
2021/04/08 03:27:10;;;;;;;19.48;10.13;;;;;;;3.73;58.76;99459.97;5044825;28;20492;-77
2021/04/08 03:29:40;;;;;;;24.00;9.07;;;;;;;3.78;59.06;99462.28;5044925;28;20056;-75
2021/04/08 03:32:08;;;;;;;22.42;10.52;;;;;;;3.81;58.67;99456.91;5045403;28;20106;-76
2021/04/08 03:34:36;;;;;;;22.60;11.77;;;;;;;3.82;58.58;99469.06;5042676;28;20049;-76
2021/04/08 03:37:03;;;;;;;19.80;9.52;;;;;;;3.82;58.90;99466.44;5045454;28;20045;-75
2021/04/08 03:39:30;;;;;;;16.45;9.60;;;;;;;3.85;58.57;99462.78;5046058;28;20443;-75
2021/04/08 03:41:57;;;;;;;17.08;8.30;;;;;;;3.88;58.53;99460.03;5045550;28;20044;-74
2021/04/08 03:44:25;;;;;;;16.38;9.15;;;;;;;3.91;58.71;99463.28;5044240;28;20462;-75
2021/04/08 03:46:57;;;;;;;19.15;10.40;;;;;;;3.91;58.92;99465.91;5045843;28;20053;-75
2021/04/08 03:49:26;;;;;;;16.23;9.57;;;;;;;3.93;58.65;99465.81;5044757;28;20045;-76
2021/04/08 03:51:54;;;;;;;17.60;8.35;;;;;;;3.89;58.72;99466.91;5045298;28;20093;-75
2021/04/08 03:54:22;;;;;;;19.27;11.50;;;;;;;3.97;58.42;99477.78;5045806;28;20622;-76
2021/04/08 03:56:51;;;;;;;17.15;10.25;;;;;;;4.00;58.69;99481.06;5043632;28;20228;-76
2021/04/08 03:59:19;;;;;;;20.73;11.15;;;;;;;3.92;58.87;99485.88;5044465;28;20049;-74
2021/04/08 04:01:47;;;;;;;17.33;9.25;;;;;;;3.81;59.47;99477.81;5045190;28;20097;-76
2021/04/08 04:04:15;;;;;;;18.92;9.45;;;;;;;3.67;60.17;99480.34;5042799;28;20084;-76
2021/04/08 04:06:47;;;;;;;20.90;10.95;;;;;;;3.60;60.16;99483.31;5043984;28;20538;-75
2021/04/08 04:09:14;;;;;;;20.40;12.85;;;;;;;3.57;60.43;99493.94;5044695;28;20045;-76
2021/04/08 04:11:44;;;;;;;21.40;12.32;;;;;;;3.55;60.84;99490.56;5043287;28;20048;-76
2021/04/08 04:14:14;;;;;;;22.73;14.15;;;;;;;3.54;61.04;99486.25;5044488;28;20128;-76
2021/04/08 04:16:44;;;;;;;26.42;16.45;;;;;;;3.55;60.92;99492.34;5044420;28;20088;-76
2021/04/08 04:19:11;;;;;;;22.17;12.90;;;;;;;3.56;61.16;99489.63;5044171;28;20119;-76
2021/04/08 04:21:38;;;;;;;23.48;16.67;;;;;;;3.55;61.41;99493.19;5044008;28;20052;-74
2021/04/08 04:24:05;;;;;;;27.88;16.63;;;;;;;3.57;61.15;99493.09;5044385;28;20060;-79
2021/04/08 04:26:32;;;;;;;38.38;19.45;;;;;;;3.60;61.29;99498.13;5042248;28;20489;-78
2021/04/08 04:28:58;;;;;;;44.28;23.17;;;;;;;3.59;61.29;99499.06;5042892;28;20049;-75
2021/04/08 04:31:25;;;;;;;41.00;23.65;;;;;;;3.60;61.76;99499.00;5043481;28;20123;-76
2021/04/08 04:33:51;;;;;;;33.97;18.42;;;;;;;3.55;61.80;99497.56;5040109;28;20053;-76
2021/04/08 04:36:18;;;;;;;28.50;16.27;;;;;;;3.60;62.14;99501.59;5043394;28;20044;-75
2021/04/08 04:38:45;;;;;;;28.27;16.58;;;;;;;3.61;62.03;99499.81;5043935;28;20052;-75
2021/04/08 04:41:12;;;;;;;28.50;15.10;;;;;;;3.61;62.06;99503.28;5041561;28;20139;-76
2021/04/08 04:43:40;;;;;;;37.15;19.75;;;;;;;3.59;62.42;99502.50;5043505;28;20045;-76
2021/04/08 04:46:06;;;;;;;38.63;19.05;;;;;;;3.61;62.23;99498.03;5041251;28;20076;-77
2021/04/08 04:48:33;;;;;;;34.97;17.40;;;;;;;3.62;62.17;99502.34;5040602;28;20056;-76
2021/04/08 04:50:59;;;;;;;34.80;21.15;;;;;;;3.66;62.40;99499.59;5042956;28;20049;-76
2021/04/08 04:53:25;;;;;;;33.88;22.65;;;;;;;3.68;62.76;99502.94;5041973;28;20045;-77
2021/04/08 04:55:53;;;;;;;31.88;18.42;;;;;;;3.73;62.49;99503.53;5041260;28;20044;-76
2021/04/08 04:58:19;;;;;;;37.00;17.95;;;;;;;3.80;62.63;99512.72;5041919;28;20087;-77
2021/04/08 05:00:45;;;;;;;33.85;17.77;;;;;;;3.84;62.46;99506.38;5041489;28;20055;-74
2021/04/08 05:03:12;;;;;;;41.10;22.42;;;;;;;3.87;62.85;99510.56;5038238;28;20048;-74
2021/04/08 05:05:38;;;;;;;33.10;18.00;;;;;;;3.91;62.93;99502.47;5041319;28;20693;-77
2021/04/08 05:08:05;;;;;;;30.83;17.13;;;;;;;3.98;62.71;99508.19;5040894;28;20094;-75
2021/04/08 05:10:31;;;;;;;36.15;19.52;;;;;;;3.98;62.82;99511.66;5040915;28;20052;-76
2021/04/08 05:12:59;;;;;;;31.45;18.25;;;;;;;3.98;62.73;99506.44;5040356;28;20102;-75
2021/04/08 05:15:25;;;;;;;34.85;21.02;;;;;;;3.99;62.87;99521.16;5039987;28;20057;-77
2021/04/08 05:17:52;;;;;;;33.85;19.98;;;;;;;4.00;63.00;99525.47;5039947;28;20041;-76
2021/04/08 05:20:18;;;;;;;38.45;23.67;;;;;;;4.02;63.00;99521.00;5040239;28;20052;-74
2021/04/08 05:22:45;;;;;;;30.88;18.45;;;;;;;4.08;63.28;99538.09;5039373;28;20041;-75
2021/04/08 05:25:12;;;;;;;34.85;19.45;;;;;;;4.11;63.08;99531.88;5040713;28;20072;-72
2021/04/08 05:27:38;;;;;;;36.00;19.02;;;;;;;4.19;62.95;99543.53;5041758;28;20496;-76
2021/04/08 05:30:07;;;;;;;39.17;19.83;;;;;;;4.19;63.33;99547.94;5040980;28;20508;-80
2021/04/08 05:32:33;;;;;;;36.03;18.52;;;;;;;4.22;63.25;99540.75;5040633;28;20041;-76
2021/04/08 05:35:00;;;;;;;34.65;18.90;;;;;;;4.28;63.22;99550.00;5040450;28;20049;-72
2021/04/08 05:37:26;;;;;;;31.45;20.50;;;;;;;4.27;63.32;99553.56;5041055;28;20056;-78
2021/04/08 05:39:52;;;;;;;29.83;16.70;;;;;;;4.30;63.52;99549.94;5046034;28;20052;-77
2021/04/08 05:42:19;;;;;;;37.33;21.00;;;;;;;4.34;63.39;99557.50;5046160;28;20053;-74
2021/04/08 05:44:45;;;;;;;27.52;17.25;;;;;;;4.40;63.60;99553.69;5041769;28;20053;-74
2021/04/08 05:47:13;;;;;;;28.77;17.40;;;;;;;4.46;63.14;99569.03;5041533;28;20123;-74
2021/04/08 05:49:39;;;;;;;26.73;16.23;;;;;;;4.49;63.48;99565.41;5041355;28;20049;-79
2021/04/08 05:52:06;;;;;;;39.92;27.55;;;;;;;4.46;63.65;99570.81;5041132;28;20044;-78
2021/04/08 05:54:33;;;;;;;29.08;18.98;;;;;;;4.44;63.97;99568.28;5040316;28;20128;-74
2021/04/08 05:57:01;;;;;;;29.23;17.45;;;;;;;4.37;63.98;99574.78;5037941;28;20489;-77
2021/04/08 05:59:27;;;;;;;32.13;20.45;;;;;;;4.47;64.05;99583.78;5035053;28;20083;-75
2021/04/08 06:01:53;;;;;;;30.90;17.58;;;;;;;4.57;63.94;99591.94;5037443;28;20045;-79
2021/04/08 06:04:21;;;;;;;31.67;22.10;;;;;;;4.56;63.90;99587.66;5036705;28;20041;-76
2021/04/08 06:06:47;;;;;;;34.28;20.95;;;;;;;4.47;64.27;99585.56;5040878;28;20049;-74
2021/04/08 06:09:13;;;;;;;36.65;19.58;;;;;;;4.52;64.23;99588.72;5036737;28;20045;-74
2021/04/08 06:11:40;;;;;;;39.38;22.25;;;;;;;4.63;64.14;99586.34;5038005;28;20048;-75
2021/04/08 06:14:06;;;;;;;44.70;27.80;;;;;;;4.54;64.47;99592.13;5036999;28;20045;-74
2021/04/08 06:16:33;;;;;;;35.50;23.42;;;;;;;4.52;64.47;99593.97;5040012;28;20075;-75
2021/04/08 06:18:59;;;;;;;38.75;22.73;;;;;;;4.60;64.34;99602.22;5037825;28;20608;-76
2021/04/08 06:21:27;;;;;;;38.38;22.48;;;;;;;4.72;64.11;99604.13;5039397;28;20053;-79
2021/04/08 06:23:53;;;;;;;36.92;21.23;;;;;;;4.74;64.38;99599.63;5037901;28;20056;-77
2021/04/08 06:26:20;;;;;;;44.25;29.10;;;;;;;4.86;63.96;99613.78;5038040;28;20647;-77
2021/04/08 06:28:46;;;;;;;32.97;21.20;;;;;;;4.87;64.14;99607.59;5038685;28;20060;-78
2021/04/08 06:31:12;;;;;;;33.50;21.42;;;;;;;5.10;63.79;99616.72;5038524;28;20212;-77
2021/04/08 06:33:39;;;;;;;38.65;26.33;;;;;;;5.22;63.35;99619.50;5035725;28;20061;-76
2021/04/08 06:36:08;;;;;;;36.78;19.55;;;;;;;5.24;63.30;99615.88;5037896;28;20045;-74
2021/04/08 06:38:36;;;;;;;36.25;24.38;;;;;;;5.19;63.61;99624.97;5039093;28;20049;-77
2021/04/08 06:41:02;;;;;;;38.05;25.08;;;;;;;5.25;63.46;99619.34;5037813;28;20653;-73
2021/04/08 06:43:32;;;;;;;40.38;25.98;;;;;;;5.34;63.02;99629.25;5040895;28;20170;-71
2021/04/08 06:46:00;;;;;;;39.92;27.55;;;;;;;5.26;63.10;99626.28;5035284;28;20060;-73
2021/04/08 06:48:42;;;;;;;38.92;24.17;;;;;;;5.32;63.43;99634.56;5033849;28;20041;-74
2021/04/08 06:51:13;;;;;;;40.70;24.63;;;;;;;5.28;63.41;99629.63;5035929;28;20044;-75
2021/04/08 06:53:41;;;;;;;44.17;30.65;;;;;;;5.16;63.75;99639.88;5034974;28;20824;-75
2021/04/08 06:56:08;;;;;;;31.70;18.00;;;;;;;5.15;63.66;99646.06;5033267;28;20045;-76
2021/04/08 06:58:36;;;;;;;27.00;18.13;;;;;;;5.31;63.48;99643.38;5034806;28;20139;-75
2021/04/08 07:01:07;;;;;;;29.38;18.58;;;;;;;5.37;63.45;99647.41;5034407;28;20057;-76
2021/04/08 07:03:33;;;;;;;29.83;17.17;;;;;;;5.54;62.74;99652.44;5033517;28;20705;-76
2021/04/08 07:06:00;;;;;;;28.30;19.75;;;;;;;5.65;62.68;99653.56;5035012;28;20102;-75
2021/04/08 07:08:28;;;;;;;26.23;20.08;;;;;;;5.43;62.78;99665.34;5034249;28;20059;-79
2021/04/08 07:10:55;;;;;;;21.27;15.05;;;;;;;5.45;62.85;99666.09;5037211;28;20048;-77
2021/04/08 07:13:22;;;;;;;26.70;14.95;;;;;;;5.54;62.77;99668.16;5036610;28;20536;-78
2021/04/08 07:15:48;;;;;;;27.08;19.73;;;;;;;5.38;63.10;99667.41;5035972;28;20048;-80
2021/04/08 07:18:15;;;;;;;25.25;20.15;;;;;;;5.21;63.43;99668.44;5036897;28;20047;-78
2021/04/08 07:20:42;;;;;;;23.70;16.13;;;;;;;5.09;64.23;99679.63;5034234;28;20048;-77
2021/04/08 07:23:10;;;;;;;24.75;19.35;;;;;;;5.01;64.49;99674.84;5034725;28;20049;-76
2021/04/08 07:25:36;;;;;;;26.17;18.63;;;;;;;4.90;64.71;99683.31;5037440;28;20044;-74
2021/04/08 07:28:30;;;;;;;22.08;18.17;;;;;;;4.98;64.96;99693.34;5034957;28;20149;-78
2021/04/08 07:30:56;;;;;;;20.42;14.75;;;;;;;5.05;64.53;99691.22;5031352;28;20056;-73
2021/04/08 07:33:22;;;;;;;22.52;16.20;;;;;;;5.16;64.59;99697.47;5032976;28;20118;-75
2021/04/08 07:35:49;;;;;;;20.50;14.75;;;;;;;5.39;63.55;99700.53;5033735;28;20643;-75
2021/04/08 07:38:15;;;;;;;20.38;15.55;;;;;;;5.57;63.19;99700.34;5032184;28;20045;-73
2021/04/08 07:40:58;;;;;;;19.65;12.98;;;;;;;5.53;63.35;99713.63;5034252;28;20053;-75
2021/04/08 07:43:25;;;;;;;16.65;8.90;;;;;;;5.70;62.91;99717.84;5030291;28;20040;-75
2021/04/08 07:45:52;;;;;;;16.45;11.15;;;;;;;5.81;62.31;99727.66;5031640;28;20053;-76
2021/04/08 07:48:32;;;;;;;14.45;8.10;;;;;;;5.98;61.70;99725.81;5031563;28;20040;-74
2021/04/08 07:50:59;;;;;;;13.40;9.20;;;;;;;5.80;61.65;99728.63;5031770;28;20149;-74
2021/04/08 07:53:26;;;;;;;15.15;11.55;;;;;;;5.77;61.91;99725.34;5037760;28;20527;-77
2021/04/08 07:55:53;;;;;;;13.77;11.13;;;;;;;5.88;61.61;99734.22;5032254;28;20049;-76
2021/04/08 07:58:19;;;;;;;14.20;9.43;;;;;;;5.99;61.64;99743.25;5031699;28;20701;-75
2021/04/08 08:00:50;;;;;;;14.63;11.60;;;;;;;6.11;61.29;99745.09;5035489;28;20256;-73
2021/04/08 08:03:25;;;;;;;14.68;10.52;;;;;;;6.15;61.27;99743.13;5030550;28;20044;-74
2021/04/08 08:05:58;;;;;;;13.32;8.85;;;;;;;6.16;60.91;99760.53;5030584;28;20057;-75
2021/04/08 08:08:25;;;;;;;14.52;9.80;;;;;;;6.03;60.48;99744.72;5031106;28;20546;-76
2021/04/08 08:10:57;;;;;;;15.73;9.82;;;;;;;6.16;60.85;99771.03;5032272;28;20266;-74
2021/04/08 08:13:28;;;;;;;11.55;9.48;;;;;;;6.19;59.83;99762.97;5031250;28;20132;-73
2021/04/08 08:15:57;;;;;;;10.20;6.80;;;;;;;6.15;60.13;99772.81;5031835;28;20052;-75
2021/04/08 08:18:29;;;;;;;12.30;9.23;;;;;;;6.06;59.96;99774.22;5032390;28;20051;-75
2021/04/08 08:21:04;;;;;;;13.77;7.22;;;;;;;6.04;60.75;99786.59;5032480;28;20047;-77
2021/04/08 08:23:38;;;;;;;12.07;8.30;;;;;;;6.15;60.40;99793.78;5032716;28;20055;-76
2021/04/08 08:26:38;;;;;;;10.50;8.60;;;;;;;6.24;59.63;99787.97;5032494;28;20048;-77
2021/04/08 08:29:16;;;;;;;10.73;7.28;;;;;;;6.18;60.37;99796.22;4970526;28;20734;-77
2021/04/08 08:31:45;;;;;;;15.68;9.55;;;;;;;6.45;59.55;99798.09;4972219;28;20057;-78
2021/04/08 08:34:14;;;;;;;10.65;7.20;;;;;;;6.53;59.27;99808.09;4967588;28;20080;-77
2021/04/08 08:36:42;;;;;;;12.15;7.15;;;;;;;6.68;58.78;99813.22;4972511;28;20130;-77
2021/04/08 08:39:11;;;;;;;14.23;9.05;;;;;;;6.44;58.68;99820.81;4970253;28;20044;-74
2021/04/08 08:41:38;;;;;;;9.68;7.40;;;;;;;6.12;60.27;99812.31;4968527;28;20057;-76
2021/04/08 08:44:07;;;;;;;13.07;7.88;;;;;;;5.86;60.50;99825.19;4970788;28;20055;-74
2021/04/08 08:46:45;;;;;;;12.30;9.40;;;;;;;5.68;61.37;99834.16;4970067;28;20122;-75
2021/04/08 08:49:15;;;;;;;12.00;8.48;;;;;;;5.51;61.47;99836.00;4968600;28;20584;-74
2021/04/08 08:51:42;;;;;;;11.40;9.07;;;;;;;5.54;61.61;99840.19;4969270;28;20594;-75
2021/04/08 08:54:10;;;;;;;14.00;9.02;;;;;;;5.54;61.52;99846.28;4969715;28;20051;-74
2021/04/08 08:56:38;;;;;;;11.63;8.98;;;;;;;5.69;61.36;99849.81;4968712;28;20185;-74
2021/04/08 08:59:06;;;;;;;15.75;10.73;;;;;;;5.88;60.80;99846.91;4977416;28;20155;-76
2021/04/08 09:01:35;;;;;;;14.60;10.82;;;;;;;5.74;60.89;99849.50;5032311;28;20059;-75
2021/04/08 09:04:02;;;;;;;14.75;9.88;;;;;;;5.69;60.62;99852.41;5029797;28;20099;-74
2021/04/08 09:06:31;;;;;;;15.13;10.13;;;;;;;5.81;60.43;99865.72;5031345;28;20091;-75
2021/04/08 09:09:04;;;;;;;16.17;12.63;;;;;;;5.75;60.45;99870.41;5032358;28;20075;-75
2021/04/08 09:11:32;;;;;;;17.98;9.80;;;;;;;5.88;60.59;99878.38;5033047;28;20048;-76
2021/04/08 09:14:00;;;;;;;14.27;7.35;;;;;;;6.29;59.14;99861.97;5037006;28;20052;-75
2021/04/08 09:16:29;;;;;;;14.85;9.30;;;;;;;6.22;59.18;99870.31;5035690;28;20057;-72
2021/04/08 09:19:01;;;;;;;10.65;7.40;;;;;;;6.54;59.14;99883.25;5035753;28;20053;-75
2021/04/08 09:21:41;;;;;;;13.35;8.07;;;;;;;6.58;58.30;99877.69;5033356;28;20052;-72
2021/04/08 09:24:11;;;;;;;14.50;7.80;;;;;;;6.47;57.67;99883.63;5033548;28;20056;-72
2021/04/08 09:26:39;;;;;;;13.07;8.25;;;;;;;6.72;57.91;99882.09;5033988;28;20051;-73
2021/04/08 09:29:07;;;;;;;12.60;8.82;;;;;;;6.72;57.32;99889.13;5034103;28;20049;-73
2021/04/08 09:31:34;;;;;;;13.52;9.52;;;;;;;6.75;57.00;99892.38;5034401;28;20045;-71
2021/04/08 09:34:02;;;;;;;10.60;8.27;;;;;;;6.76;56.55;99888.00;5031039;28;20061;-72
2021/04/08 09:36:40;;;;;;;13.27;9.40;;;;;;;6.58;57.02;99890.00;5033281;28;20053;-71
2021/04/08 09:39:29;;;;;;;12.23;5.82;;;;;;;6.62;57.60;99913.31;5030106;28;20172;-74
2021/04/08 09:42:01;;;;;;;12.38;7.78;;;;;;;6.73;56.91;99903.94;5031883;28;20117;-73
2021/04/08 09:44:29;;;;;;;11.68;8.07;;;;;;;6.58;57.27;99903.94;5030082;28;20126;-74
2021/04/08 09:46:58;;;;;;;9.45;5.97;;;;;;;6.59;57.61;99910.91;5031501;28;20124;-73
2021/04/08 09:49:47;;;;;;;11.77;7.95;;;;;;;6.77;57.85;99908.91;5032029;28;20488;-73
2021/04/08 09:52:15;;;;;;;18.27;9.63;;;;;;;6.64;58.20;99926.34;5032575;28;20041;-73
2021/04/08 09:54:46;;;;;;;10.38;5.95;;;;;;;6.36;58.26;99932.44;5032694;28;20715;-72
2021/04/08 09:57:33;;;;;;;17.05;7.63;;;;;;;6.31;58.21;99930.91;5031993;28;20136;-71
2021/04/08 10:00:00;;;;;;;12.57;7.10;;;;;;;6.23;58.21;99933.16;5015844;28;20104;-73
2021/04/08 10:02:28;;;;;;;9.55;7.65;;;;;;;6.17;58.08;99925.66;5025478;28;20128;-73
2021/04/08 10:05:07;;;;;;;12.57;8.15;;;;;;;6.36;58.17;99948.19;5021245;28;20175;-74
2021/04/08 10:07:51;;;;;;;11.50;8.07;;;;;;;6.37;58.77;99940.19;5030532;28;20110;-73
2021/04/08 10:10:18;;;;;;;13.25;6.32;;;;;;;6.43;58.51;99946.88;5033331;28;20583;-74
2021/04/08 10:12:45;;;;;;;14.80;7.40;;;;;;;6.73;58.37;99944.13;5034515;28;20126;-74
2021/04/08 10:15:16;;;;;;;16.00;8.73;;;;;;;6.66;58.80;99951.56;5030048;28;20060;-75
2021/04/08 10:17:43;;;;;;;14.32;7.80;;;;;;;6.78;58.54;99952.59;5034523;28;20045;-73
2021/04/08 10:20:11;;;;;;;14.75;9.15;;;;;;;6.94;58.25;99954.28;5033848;28;20109;-75
2021/04/08 10:22:43;;;;;;;15.48;8.50;;;;;;;7.03;58.04;99954.53;5033304;28;20045;-75
2021/04/08 10:25:13;;;;;;;12.55;6.85;;;;;;;7.27;57.91;99961.78;5033918;28;20082;-74
2021/04/08 10:27:40;;;;;;;11.65;6.68;;;;;;;7.24;57.52;99967.25;5031643;28;20110;-73
2021/04/08 10:30:18;;;;;;;13.18;8.43;;;;;;;7.37;57.60;99962.91;5033381;28;20056;-76
2021/04/08 10:32:45;;;;;;;18.10;10.50;;;;;;;7.69;56.79;99959.13;5033459;28;20120;-74
2021/04/08 10:35:19;;;;;;;15.13;8.48;;;;;;;7.27;56.49;99961.78;5028087;28;20044;-75
2021/04/08 10:37:46;;;;;;;15.43;10.23;;;;;;;7.15;57.85;99963.44;5033318;28;20044;-72
2021/04/08 10:40:14;;;;;;;14.80;8.63;;;;;;;7.37;57.44;99962.06;5032008;28;20053;-77
2021/04/08 10:42:40;;;;;;;13.05;7.18;;;;;;;7.76;56.93;99971.78;5039162;28;20057;-75
2021/04/08 10:45:08;;;;;;;12.77;9.68;;;;;;;8.08;54.84;99963.56;5034792;28;20052;-71
2021/04/08 10:47:37;;;;;;;17.52;8.70;;;;;;;7.94;55.22;99971.50;5034192;28;20077;-71
2021/04/08 10:50:06;;;;;;;15.13;6.32;;;;;;;8.28;55.33;99972.72;5032384;28;20567;-74
2021/04/08 10:52:35;;;;;;;17.98;12.15;;;;;;;8.82;53.81;99958.56;5030178;28;20822;-73
2021/04/08 10:55:04;;;;;;;12.85;8.65;;;;;;;8.54;53.38;99970.19;5033484;28;20115;-73
2021/04/08 10:57:32;;;;;;;16.50;8.18;;;;;;;8.68;53.82;99966.56;5029666;28;20044;-76
2021/04/08 11:00:00;;;;;;;13.90;7.93;;;;;;;8.59;52.85;99986.50;5033704;28;20122;-73
2021/04/08 11:02:29;;;;;;;14.38;8.52;;;;;;;8.42;52.14;99982.38;5031328;28;20186;-72
2021/04/08 11:04:58;;;;;;;13.95;9.95;;;;;;;8.10;53.20;99990.59;5031057;28;20101;-73
2021/04/08 11:07:26;;;;;;;14.85;8.38;;;;;;;8.00;54.25;99987.75;5033468;28;20032;-72
2021/04/08 11:09:53;;;;;;;10.88;6.57;;;;;;;7.87;54.17;99992.13;5032138;28;20616;-72
2021/04/08 11:12:22;;;;;;;15.70;9.48;;;;;;;7.43;55.73;100004.53;5033961;28;20063;-75
2021/04/08 11:14:53;;;;;;;13.35;7.60;;;;;;;7.40;57.07;100010.00;5034326;28;20064;-74
2021/04/08 11:17:21;;;;;;;16.35;8.02;;;;;;;7.89;56.12;100010.44;5033983;28;20041;-77
2021/04/08 11:19:49;;;;;;;13.93;8.88;;;;;;;8.04;56.06;100002.38;5040527;28;20044;-73
2021/04/08 11:22:18;;;;;;;18.77;10.30;;;;;;;8.09;55.47;100004.69;5033673;28;20076;-77
2021/04/08 11:24:47;;;;;;;18.80;11.90;;;;;;;8.19;54.61;100005.78;5035013;28;20128;-74
2021/04/08 11:27:13;;;;;;;17.20;11.20;;;;;;;7.97;54.00;100003.72;5038689;28;20049;-77
2021/04/08 11:29:40;;;;;;;11.23;7.88;;;;;;;7.75;53.71;100004.28;5036080;28;20055;-76
2021/04/08 11:32:10;;;;;;;12.95;10.05;;;;;;;7.91;53.93;100008.56;5034717;28;20044;-72
2021/04/08 11:34:43;;;;;;;11.63;7.60;;;;;;;8.10;53.57;100018.69;5031525;28;20048;-74
2021/04/08 11:37:10;;;;;;;14.40;8.77;;;;;;;8.27;52.06;100009.69;5033669;28;20099;-72
2021/04/08 11:39:38;;;;;;;12.82;6.22;;;;;;;8.51;52.57;100012.50;5031615;28;20041;-75